createdAt,value
2023-03-23T15:59:59.126Z,50.54
2023-03-23T16:02:27.382Z,50.62
2023-03-23T16:04:56.550Z,50.76
2023-03-23T16:07:25.018Z,50.56
2023-03-23T16:09:53.386Z,50.47
2023-03-23T16:12:21.636Z,50.68
2023-03-23T16:14:50.483Z,50.72
2023-03-23T16:17:20.078Z,50.75
2023-03-23T16:19:50.184Z,50.74
2023-03-23T16:22:18.743Z,50.79
2023-03-23T16:24:50.718Z,50.85
2023-03-23T16:27:21.670Z,50.79
2023-03-23T16:30:02.823Z,50.75
2023-03-23T16:35:03.336Z,50.90
2023-03-23T16:37:34.649Z,51.17
2023-03-23T16:40:03.652Z,51.18
2023-03-23T16:42:32.581Z,51.24
2023-03-23T16:45:01.562Z,51.15
2023-03-23T16:47:30.415Z,51.21
2023-03-23T16:50:06.843Z,51.78
2023-03-23T16:52:35.492Z,52.18
2023-03-23T16:55:15.963Z,52.60
2023-03-23T16:57:44.977Z,52.51
2023-03-23T17:00:16.842Z,52.33
2023-03-23T17:02:45.252Z,52.28
2023-03-23T17:05:14.100Z,52.20
2023-03-23T17:07:42.555Z,51.94
2023-03-23T17:10:15.877Z,52.17
2023-03-23T17:12:45.977Z,51.94
2023-03-23T17:15:15.414Z,51.65
2023-03-23T17:17:45.957Z,51.52
2023-03-23T17:20:14.136Z,51.86
2023-03-23T17:22:42.329Z,51.78
2023-03-23T17:25:12.187Z,51.81
2023-03-23T17:27:41.173Z,51.69
2023-03-23T17:30:15.601Z,51.49
2023-03-23T17:32:49.598Z,51.67
2023-03-23T17:35:17.897Z,51.84
2023-03-23T17:37:49.033Z,51.95
2023-03-23T17:40:17.410Z,51.92
2023-03-23T17:42:45.578Z,52.08
2023-03-23T17:45:15.524Z,52.18
2023-03-23T17:47:44.197Z,52.43
2023-03-23T17:50:18.883Z,52.48
2023-03-23T17:52:47.420Z,52.48
2023-03-23T17:55:15.995Z,52.51
2023-03-23T17:57:45.633Z,52.86
2023-03-23T18:00:15.502Z,52.82
2023-03-23T18:02:44.153Z,52.92
2023-03-23T18:05:12.858Z,53.02
2023-03-23T18:07:41.454Z,53.16
2023-03-23T18:10:13.243Z,53.38
2023-03-23T18:12:41.856Z,53.57
2023-03-23T18:15:10.627Z,53.54
2023-03-23T18:17:38.977Z,53.74
2023-03-23T18:20:07.756Z,53.79
2023-03-23T18:22:37.188Z,53.79
2023-03-23T18:25:06.146Z,53.99
2023-03-23T18:27:34.945Z,54.06
2023-03-23T18:30:04.052Z,54.22
2023-03-23T18:32:38.456Z,54.38
2023-03-23T18:35:08.104Z,54.44
2023-03-23T18:37:37.078Z,54.60
2023-03-23T18:40:07.298Z,54.61
2023-03-23T18:42:36.989Z,54.63
2023-03-23T18:45:05.968Z,54.90
2023-03-23T18:47:34.328Z,54.92
2023-03-23T18:50:02.561Z,55.21
2023-03-23T18:52:32.085Z,55.24
2023-03-23T18:55:00.850Z,55.31
2023-03-23T18:57:29.147Z,55.67
2023-03-23T18:59:57.570Z,55.78
2023-03-23T19:02:25.982Z,55.97
2023-03-23T19:04:54.230Z,56.02
2023-03-23T19:07:22.388Z,56.02
2023-03-23T19:09:50.718Z,56.39
2023-03-23T19:12:23.346Z,56.31
2023-03-23T19:14:52.653Z,56.50
2023-03-23T19:17:20.836Z,56.51
2023-03-23T19:19:52.629Z,56.73
2023-03-23T19:22:21.118Z,56.82
2023-03-23T19:24:49.216Z,56.88
2023-03-23T19:27:21.027Z,57.14
2023-03-23T19:29:49.976Z,57.35
2023-03-23T19:32:18.702Z,57.36
2023-03-23T19:34:51.056Z,57.50
2023-03-23T19:37:20.035Z,57.78
2023-03-23T19:39:48.319Z,58.05
2023-03-23T19:42:18.573Z,58.18
2023-03-23T19:44:47.459Z,58.36
2023-03-23T19:47:16.480Z,58.63
2023-03-23T19:49:45.697Z,58.59
2023-03-23T19:52:15.068Z,58.89
2023-03-23T19:54:46.067Z,59.02
2023-03-23T19:57:14.759Z,59.15
2023-03-23T19:59:44.319Z,59.35
2023-03-23T20:02:12.749Z,59.44
2023-03-23T20:04:41.521Z,59.67
2023-03-23T20:07:10.237Z,59.91
2023-03-23T20:09:38.956Z,60.10
2023-03-23T20:12:10.786Z,60.14
2023-03-23T20:14:45.133Z,60.20
2023-03-23T20:17:14.729Z,60.30
2023-03-23T20:19:45.413Z,60.33
2023-03-23T20:22:14.637Z,60.48
2023-03-23T20:24:43.504Z,60.75
2023-03-23T20:27:16.621Z,60.57
2023-03-23T20:29:45.105Z,60.72
2023-03-23T20:32:17.661Z,60.83
2023-03-23T20:34:49.374Z,61.00
2023-03-23T20:37:20.921Z,61.03
2023-03-23T20:39:50.151Z,60.94
2023-03-23T20:42:18.337Z,61.12
2023-03-23T20:44:47.485Z,61.19
2023-03-23T20:47:18.113Z,61.18
2023-03-23T20:49:53.308Z,61.25
2023-03-23T20:52:23.418Z,61.41
2023-03-23T20:54:55.171Z,61.55
2023-03-23T20:57:23.479Z,61.58
2023-03-23T20:59:55.520Z,61.73
2023-03-23T21:02:26.088Z,62.00
2023-03-23T21:04:58.401Z,62.00
2023-03-23T21:07:27.514Z,62.12
2023-03-23T21:09:56.298Z,62.29
2023-03-23T21:12:32.096Z,62.24
2023-03-23T21:15:01.699Z,62.34
2023-03-23T21:17:30.292Z,62.45
2023-03-23T21:20:08.550Z,62.68
2023-03-23T21:22:36.764Z,62.77
2023-03-23T21:25:05.280Z,63.04
2023-03-23T21:27:33.580Z,63.28
2023-03-23T21:30:03.427Z,63.22
2023-03-23T21:32:32.996Z,63.31
2023-03-23T21:35:03.257Z,63.43
2023-03-23T21:37:31.558Z,63.43
2023-03-23T21:40:01.303Z,63.35
2023-03-23T21:42:32.303Z,63.47
2023-03-23T21:45:03.277Z,63.80
2023-03-23T21:47:32.776Z,63.91
2023-03-23T21:50:02.149Z,64.11
2023-03-23T21:52:32.166Z,64.05
2023-03-23T21:55:02.676Z,64.11
2023-03-23T21:57:31.947Z,64.18
2023-03-23T22:00:14.656Z,64.33
2023-03-23T22:02:45.182Z,64.42
2023-03-23T22:05:13.444Z,64.55
2023-03-23T22:07:46.452Z,64.79
2023-03-23T22:10:15.644Z,64.66
2023-03-23T22:12:43.887Z,64.68
2023-03-23T22:15:18.275Z,64.91
2023-03-23T22:17:47.404Z,64.86
2023-03-23T22:20:15.652Z,65.01
2023-03-23T22:22:46.455Z,65.04
2023-03-23T22:25:14.843Z,65.04
2023-03-23T22:27:43.454Z,64.95
2023-03-23T22:30:12.558Z,65.17
2023-03-23T22:32:42.271Z,65.19
2023-03-23T22:35:12.737Z,65.44
2023-03-23T22:37:41.281Z,65.55
2023-03-23T22:40:11.555Z,65.47
2023-03-23T22:42:40.917Z,65.52
2023-03-23T22:45:09.863Z,65.44
2023-03-23T22:47:38.824Z,65.51
2023-03-23T22:50:08.322Z,65.62
2023-03-23T22:52:37.044Z,65.57
2023-03-23T22:55:08.609Z,65.74
2023-03-23T22:57:37.765Z,65.64
2023-03-23T23:00:14.619Z,65.77
2023-03-23T23:02:44.000Z,65.82
2023-03-23T23:05:12.505Z,65.83
2023-03-23T23:07:42.905Z,65.78
2023-03-23T23:10:11.983Z,65.96
2023-03-23T23:12:42.681Z,65.79
2023-03-23T23:15:20.421Z,65.99
2023-03-23T23:17:48.811Z,66.03
2023-03-23T23:20:18.984Z,66.10
2023-03-23T23:22:49.071Z,66.29
2023-03-23T23:25:17.521Z,66.23
2023-03-23T23:27:46.092Z,66.28
2023-03-23T23:30:14.419Z,66.31
2023-03-23T23:32:52.189Z,66.42
2023-03-23T23:35:26.450Z,66.64
2023-03-23T23:37:55.748Z,66.89
2023-03-23T23:40:24.065Z,66.88
2023-03-23T23:42:53.729Z,66.78
2023-03-23T23:45:22.666Z,66.66
2023-03-23T23:47:57.904Z,66.55
2023-03-23T23:50:26.402Z,66.48
2023-03-23T23:52:54.863Z,66.30
2023-03-23T23:55:23.297Z,66.31
2023-03-23T23:57:51.957Z,66.22
